createdAt,value
2019-06-26T00:00:50.610Z,23.93
2019-06-26T00:01:50.529Z,23.94
2019-06-26T00:02:50.517Z,24.02
2019-06-26T00:03:50.509Z,24.00
2019-06-26T00:04:50.496Z,23.97
2019-06-26T00:05:50.498Z,23.86
2019-06-26T00:06:50.478Z,23.89
2019-06-26T00:07:50.464Z,23.74
2019-06-26T00:08:50.451Z,23.62
2019-06-26T00:09:50.439Z,23.50
2019-06-26T00:10:50.443Z,23.23
2019-06-26T00:11:50.418Z,23.04
2019-06-26T00:12:50.464Z,22.76
2019-06-26T00:13:50.404Z,22.64
2019-06-26T00:14:50.392Z,22.41
2019-06-26T00:15:50.376Z,22.23
2019-06-26T00:16:50.374Z,22.15
2019-06-26T00:17:50.352Z,22.05
2019-06-26T00:18:50.347Z,21.96
2019-06-26T00:19:50.337Z,21.93
2019-06-26T00:20:50.326Z,21.74
2019-06-26T00:21:50.321Z,21.70
2019-06-26T00:22:50.300Z,21.58
2019-06-26T00:23:50.289Z,21.45
2019-06-26T00:24:50.277Z,21.26
2019-06-26T00:25:50.269Z,21.26
2019-06-26T00:26:50.269Z,21.11
2019-06-26T00:27:50.262Z,21.00
2019-06-26T00:28:50.246Z,20.94
2019-06-26T00:29:50.231Z,20.96
2019-06-26T00:30:50.212Z,21.00
2019-06-26T00:31:50.210Z,20.94
2019-06-26T00:32:50.194Z,21.08
2019-06-26T00:33:50.184Z,20.93
2019-06-26T00:34:50.183Z,21.00
2019-06-26T00:35:50.177Z,21.00
2019-06-26T00:36:50.174Z,20.82
2019-06-26T00:37:50.137Z,20.78
2019-06-26T00:38:50.191Z,20.73
2019-06-26T00:39:50.113Z,20.66
2019-06-26T00:40:50.104Z,20.50
2019-06-26T00:41:50.106Z,20.58
2019-06-26T00:42:50.084Z,20.58
2019-06-26T00:43:50.076Z,20.69
2019-06-26T00:44:50.059Z,20.68
2019-06-26T00:45:50.048Z,20.78
2019-06-26T00:46:50.059Z,20.75
2019-06-26T00:47:50.026Z,20.78
2019-06-26T00:48:50.021Z,20.79
2019-06-26T00:49:50.011Z,20.79
2019-06-26T00:50:49.996Z,20.76
2019-06-26T00:51:49.993Z,20.73
2019-06-26T00:52:49.987Z,20.76
2019-06-26T00:53:49.961Z,20.83
2019-06-26T00:54:49.950Z,20.94
2019-06-26T00:55:49.943Z,20.88
2019-06-26T00:56:49.938Z,20.75
2019-06-26T00:57:49.917Z,20.76
2019-06-26T00:58:49.907Z,20.64
2019-06-26T00:59:49.898Z,20.64
2019-06-26T01:00:49.885Z,20.58
2019-06-26T01:01:49.886Z,20.48
2019-06-26T01:02:49.879Z,20.33
2019-06-26T01:03:49.854Z,20.38
2019-06-26T01:04:49.843Z,20.30
2019-06-26T01:05:49.830Z,20.26
2019-06-26T01:06:49.836Z,20.17
2019-06-26T01:07:49.808Z,20.05
2019-06-26T01:08:49.809Z,20.12
2019-06-26T01:09:49.791Z,20.00
2019-06-26T01:10:49.777Z,19.94
2019-06-26T01:11:49.823Z,19.86
2019-06-26T01:12:49.754Z,19.92
2019-06-26T01:13:58.144Z,19.94
2019-06-26T01:14:50.734Z,19.79
2019-06-26T01:15:49.732Z,19.79
2019-06-26T01:16:49.732Z,19.75
2019-06-26T01:17:49.700Z,19.64
2019-06-26T01:18:49.691Z,19.58
2019-06-26T01:19:49.677Z,19.55
2019-06-26T01:20:49.666Z,19.58
2019-06-26T01:21:49.664Z,19.47
2019-06-26T01:22:49.654Z,19.47
2019-06-26T01:23:49.633Z,19.45
2019-06-26T01:24:49.623Z,19.46
2019-06-26T01:25:49.615Z,19.50
2019-06-26T01:26:49.616Z,19.50
2019-06-26T01:27:49.588Z,19.46
2019-06-26T01:28:49.579Z,19.39
2019-06-26T01:29:49.597Z,19.46
2019-06-26T01:30:49.556Z,19.43
2019-06-26T01:31:49.563Z,19.47
2019-06-26T01:32:49.541Z,19.38
2019-06-26T01:33:49.522Z,19.32
2019-06-26T01:34:49.512Z,19.35
2019-06-26T01:35:49.504Z,19.32
2019-06-26T01:36:49.490Z,19.30
2019-06-26T01:37:49.494Z,19.30
2019-06-26T01:38:49.470Z,19.24
2019-06-26T01:39:49.459Z,19.17
2019-06-26T01:40:49.447Z,19.21
2019-06-26T01:41:49.438Z,19.17
2019-06-26T01:42:49.436Z,19.06
2019-06-26T01:43:49.420Z,19.09
2019-06-26T01:44:49.402Z,19.16
2019-06-26T01:45:49.392Z,19.12
2019-06-26T01:46:49.382Z,19.10
2019-06-26T01:47:49.379Z,19.16
2019-06-26T01:48:49.356Z,19.12
2019-06-26T01:49:49.353Z,19.09
2019-06-26T01:50:49.338Z,19.05
2019-06-26T01:51:49.359Z,19.16
2019-06-26T01:52:49.342Z,19.17
2019-06-26T01:53:49.331Z,19.23
2019-06-26T01:54:49.339Z,19.27
2019-06-26T01:55:49.282Z,19.17
2019-06-26T01:56:49.269Z,19.07
2019-06-26T01:57:49.269Z,19.10
2019-06-26T01:58:49.248Z,19.12
2019-06-26T01:59:49.236Z,19.31
2019-06-26T02:00:49.226Z,19.62
2019-06-26T02:01:49.219Z,19.78
2019-06-26T02:02:49.215Z,19.97
2019-06-26T02:03:49.194Z,20.35
2019-06-26T02:04:49.181Z,20.60
2019-06-26T02:05:49.173Z,20.90
2019-06-26T02:06:49.161Z,21.08
2019-06-26T02:07:49.158Z,21.13
2019-06-26T02:08:49.139Z,21.52
2019-06-26T02:09:49.128Z,21.75
2019-06-26T02:10:49.116Z,21.81
2019-06-26T02:11:49.111Z,22.04
2019-06-26T02:12:49.109Z,22.04
2019-06-26T02:13:49.084Z,22.38
2019-06-26T02:14:49.072Z,22.39
2019-06-26T02:15:49.061Z,22.42
2019-06-26T02:16:49.052Z,22.48
2019-06-26T02:17:49.055Z,22.52
2019-06-26T02:18:49.028Z,22.51
2019-06-26T02:19:49.033Z,22.46
2019-06-26T02:20:49.034Z,22.49
2019-06-26T02:21:48.995Z,22.56
2019-06-26T02:22:49.724Z,22.48
2019-06-26T02:23:48.991Z,22.52
2019-06-26T02:24:48.966Z,22.52
2019-06-26T02:25:48.963Z,22.51
2019-06-26T02:26:48.942Z,22.56
2019-06-26T02:27:48.940Z,22.45
2019-06-26T02:28:48.924Z,22.49
2019-06-26T02:29:48.908Z,22.49
2019-06-26T02:30:48.917Z,22.49
2019-06-26T02:31:48.900Z,22.49
2019-06-26T02:32:48.895Z,22.52
2019-06-26T02:33:48.870Z,22.49
2019-06-26T02:34:48.864Z,22.44
2019-06-26T02:35:48.841Z,22.49
2019-06-26T02:36:48.831Z,22.45
2019-06-26T02:37:48.857Z,22.57
2019-06-26T02:38:48.812Z,22.63
2019-06-26T02:39:48.803Z,22.67
2019-06-26T02:40:48.788Z,22.56
2019-06-26T02:41:48.781Z,22.67
2019-06-26T02:42:48.772Z,22.60
2019-06-26T02:43:48.775Z,22.67
2019-06-26T02:44:53.912Z,22.69
2019-06-26T02:45:49.742Z,22.67
2019-06-26T02:46:48.722Z,22.69
2019-06-26T02:47:48.712Z,22.69
2019-06-26T02:48:48.710Z,22.70
2019-06-26T02:49:48.691Z,22.64
2019-06-26T02:50:48.688Z,22.69
2019-06-26T02:51:48.674Z,22.64
2019-06-26T02:52:48.658Z,22.59
2019-06-26T02:53:48.678Z,22.66
2019-06-26T02:54:48.637Z,22.60
2019-06-26T02:55:48.631Z,22.61
2019-06-26T02:56:48.614Z,22.60
2019-06-26T02:57:48.604Z,22.67
2019-06-26T02:58:48.608Z,22.67
2019-06-26T02:59:48.582Z,22.69
2019-06-26T03:00:48.570Z,22.61
2019-06-26T03:01:48.573Z,22.63
2019-06-26T03:02:48.550Z,22.61
2019-06-26T03:03:48.581Z,22.64
2019-06-26T03:04:48.628Z,22.63
2019-06-26T03:05:48.516Z,22.63
2019-06-26T03:06:48.505Z,22.70
2019-06-26T03:07:48.496Z,22.78
2019-06-26T03:08:48.493Z,22.74
2019-06-26T03:09:48.474Z,22.79
2019-06-26T03:10:48.462Z,22.85
2019-06-26T03:11:48.450Z,22.86
2019-06-26T03:12:48.441Z,22.94
2019-06-26T03:13:48.439Z,22.91
2019-06-26T03:14:48.423Z,22.84
2019-06-26T03:15:50.617Z,22.86
2019-06-26T03:16:48.398Z,22.82
2019-06-26T03:17:55.474Z,22.84
2019-06-26T03:18:49.389Z,22.94
2019-06-26T03:19:48.366Z,22.96
2019-06-26T03:20:48.356Z,22.96
2019-06-26T03:21:48.342Z,22.94
2019-06-26T03:22:48.331Z,22.86
2019-06-26T03:23:48.331Z,22.91
2019-06-26T03:24:48.308Z,22.78
2019-06-26T03:25:48.298Z,22.78
2019-06-26T03:26:48.288Z,22.70
2019-06-26T03:27:48.280Z,22.64
2019-06-26T03:28:48.277Z,22.67
2019-06-26T03:29:48.256Z,22.69
2019-06-26T03:30:48.244Z,22.70
2019-06-26T03:31:48.232Z,22.67
2019-06-26T03:32:48.225Z,22.69
2019-06-26T03:33:48.224Z,22.67
2019-06-26T03:34:48.200Z,22.60
2019-06-26T03:35:48.190Z,22.56
2019-06-26T03:36:48.178Z,22.56
2019-06-26T03:37:48.170Z,22.61
2019-06-26T03:38:48.176Z,22.49
2019-06-26T03:39:48.149Z,22.54
2019-06-26T03:40:48.134Z,22.49
2019-06-26T03:41:48.134Z,22.54
2019-06-26T03:42:48.178Z,22.42
2019-06-26T03:43:48.112Z,22.35
2019-06-26T03:44:48.093Z,22.17
2019-06-26T03:45:48.085Z,22.15
2019-06-26T03:46:48.069Z,22.09
2019-06-26T03:47:48.066Z,22.11
2019-06-26T03:48:48.060Z,21.98
2019-06-26T03:49:48.037Z,21.98
2019-06-26T03:50:48.053Z,21.91
2019-06-26T03:51:48.017Z,21.98
2019-06-26T03:52:48.076Z,21.98
2019-06-26T03:53:48.003Z,22.02
2019-06-26T03:54:47.993Z,22.04
2019-06-26T03:55:47.971Z,22.11
2019-06-26T03:56:47.965Z,22.04
2019-06-26T03:57:47.970Z,21.99
2019-06-26T03:58:47.943Z,22.06
2019-06-26T03:59:47.937Z,22.14
2019-06-26T04:00:47.917Z,22.12
2019-06-26T04:01:47.912Z,22.27
2019-06-26T04:02:47.900Z,22.42
2019-06-26T04:03:47.884Z,22.49
2019-06-26T04:04:47.884Z,22.51
2019-06-26T04:05:47.864Z,22.51
2019-06-26T04:06:47.853Z,22.52
2019-06-26T04:07:47.841Z,22.45
2019-06-26T04:08:47.832Z,22.49
2019-06-26T04:09:47.829Z,22.52
2019-06-26T04:11:44.488Z,22.45
2019-06-26T04:12:44.483Z,22.42
2019-06-26T04:13:44.467Z,22.41
2019-06-26T04:14:44.467Z,22.35
2019-06-26T04:15:44.449Z,22.23
2019-06-26T04:16:44.457Z,22.12
2019-06-26T04:17:44.440Z,22.12
2019-06-26T04:18:44.466Z,21.91
2019-06-26T04:19:44.425Z,21.90
2019-06-26T04:20:44.400Z,21.79
2019-06-26T04:21:44.382Z,21.82
2019-06-26T04:22:47.477Z,21.59
2019-06-26T04:23:44.357Z,21.58
2019-06-26T04:24:44.456Z,21.46
2019-06-26T04:25:44.341Z,21.46
2019-06-26T04:26:44.325Z,21.45
2019-06-26T04:27:44.334Z,21.55
2019-06-26T04:28:44.317Z,21.63
2019-06-26T04:29:44.317Z,21.68
2019-06-26T04:30:44.281Z,21.81
2019-06-26T04:31:44.278Z,21.71
2019-06-26T04:32:44.267Z,21.79
2019-06-26T04:33:44.306Z,21.93
2019-06-26T04:34:44.254Z,21.98
2019-06-26T04:35:44.227Z,21.94
2019-06-26T04:36:44.222Z,21.96
2019-06-26T04:37:44.210Z,21.96
2019-06-26T04:38:44.195Z,21.93
2019-06-26T04:39:44.194Z,21.79
2019-06-26T04:40:44.179Z,21.81
2019-06-26T04:41:44.168Z,21.91
2019-06-26T04:42:44.152Z,21.94
2019-06-26T04:43:44.140Z,21.96
2019-06-26T04:44:44.139Z,22.02
2019-06-26T04:45:57.233Z,22.11
2019-06-26T04:46:45.107Z,22.21
2019-06-26T04:47:44.108Z,22.30
2019-06-26T04:48:44.085Z,22.48
2019-06-26T04:49:44.083Z,22.49
2019-06-26T04:50:44.071Z,22.64
2019-06-26T04:51:44.052Z,22.61
2019-06-26T04:52:44.071Z,22.72
2019-06-26T04:53:44.030Z,22.85
2019-06-26T04:54:44.046Z,22.82
2019-06-26T04:55:44.013Z,22.85
2019-06-26T04:56:44.031Z,22.93
2019-06-26T04:57:43.988Z,22.91
2019-06-26T04:58:43.976Z,23.04
2019-06-26T04:59:43.966Z,23.22
2019-06-26T05:00:43.964Z,23.34
2019-06-26T05:01:43.943Z,23.57
2019-06-26T05:02:43.934Z,23.64
2019-06-26T05:03:43.924Z,23.87
2019-06-26T05:04:43.913Z,23.84
2019-06-26T05:05:44.608Z,24.06
2019-06-26T05:06:43.896Z,24.16
2019-06-26T05:07:43.887Z,24.26
2019-06-26T05:08:43.869Z,24.37
2019-06-26T05:09:43.857Z,24.63
2019-06-26T05:10:43.856Z,24.80
2019-06-26T05:11:43.839Z,24.98
2019-06-26T05:12:43.830Z,25.07
2019-06-26T05:13:43.817Z,25.17
2019-06-26T05:14:43.815Z,25.17
2019-06-26T05:15:43.802Z,25.27
2019-06-26T05:16:43.810Z,25.16
2019-06-26T05:17:43.776Z,25.36
2019-06-26T05:18:43.760Z,25.48
2019-06-26T05:19:43.749Z,25.63
2019-06-26T05:20:43.762Z,25.76
2019-06-26T05:21:43.729Z,25.76
2019-06-26T05:22:43.721Z,25.78
2019-06-26T05:23:43.775Z,25.53
2019-06-26T05:24:46.448Z,25.69
2019-06-26T05:25:43.694Z,25.71
2019-06-26T05:26:43.673Z,25.56
2019-06-26T05:27:43.664Z,25.54
2019-06-26T05:28:43.651Z,25.48
2019-06-26T05:29:43.657Z,25.42
2019-06-26T05:30:43.640Z,25.46
2019-06-26T05:31:43.627Z,25.63
2019-06-26T05:32:43.611Z,25.85
2019-06-26T05:33:43.597Z,25.97
2019-06-26T05:34:43.586Z,25.82
2019-06-26T05:35:43.620Z,25.71
2019-06-26T05:36:43.566Z,25.81
2019-06-26T05:37:43.557Z,25.93
2019-06-26T05:38:43.542Z,26.23
2019-06-26T05:39:43.570Z,26.64
2019-06-26T05:40:43.530Z,26.98
2019-06-26T05:41:43.513Z,27.18
2019-06-26T05:42:43.505Z,27.45
2019-06-26T05:43:43.490Z,27.74
2019-06-26T05:44:43.490Z,28.03
2019-06-26T05:45:43.531Z,28.35
2019-06-26T05:46:43.457Z,28.51
2019-06-26T05:47:43.456Z,28.72
2019-06-26T05:48:43.436Z,28.65
2019-06-26T05:49:43.429Z,28.88
2019-06-26T05:50:43.428Z,29.10
2019-06-26T05:51:43.418Z,29.17
2019-06-26T05:52:43.450Z,29.37
2019-06-26T05:53:43.381Z,29.41
2019-06-26T05:54:43.373Z,29.48
2019-06-26T05:55:43.376Z,29.67
2019-06-26T05:56:45.470Z,29.91
2019-06-26T05:57:43.337Z,30.22
2019-06-26T05:58:43.327Z,30.30
2019-06-26T05:59:43.317Z,30.36
2019-06-26T06:00:43.316Z,30.51
2019-06-26T06:01:43.316Z,30.54
2019-06-26T06:02:43.284Z,30.48
2019-06-26T06:03:43.274Z,30.67
2019-06-26T06:04:43.266Z,30.76
2019-06-26T06:05:43.306Z,30.93
2019-06-26T06:06:43.249Z,31.10
2019-06-26T06:07:43.232Z,31.25
2019-06-26T06:08:43.230Z,31.49
2019-06-26T06:09:43.211Z,31.62
2019-06-26T06:10:43.575Z,31.65
2019-06-26T06:11:43.188Z,31.64
2019-06-26T06:12:43.183Z,31.67
2019-06-26T06:13:43.167Z,31.71
2019-06-26T06:14:43.155Z,31.90
2019-06-26T06:15:43.155Z,31.99
2019-06-26T06:16:47.373Z,32.02
2019-06-26T06:17:43.159Z,32.13
2019-06-26T06:18:43.114Z,32.17
2019-06-26T06:19:43.100Z,32.24
2019-06-26T06:20:43.099Z,32.24
2019-06-26T06:21:43.078Z,32.06
2019-06-26T06:22:43.067Z,31.95
2019-06-26T06:23:43.059Z,31.79
2019-06-26T06:24:43.046Z,32.06
2019-06-26T06:25:43.050Z,32.05
2019-06-26T06:26:43.051Z,31.99
2019-06-26T06:27:43.015Z,31.91
2019-06-26T06:28:43.014Z,31.72
2019-06-26T06:29:42.999Z,31.69
2019-06-26T06:30:43.005Z,31.68
2019-06-26T06:31:42.973Z,31.69
2019-06-26T06:32:42.969Z,31.60
2019-06-26T06:33:42.958Z,31.60
2019-06-26T06:34:42.942Z,31.62
2019-06-26T06:35:42.939Z,31.68
2019-06-26T06:36:42.919Z,31.67
2019-06-26T06:37:42.906Z,31.60
2019-06-26T06:38:42.896Z,31.35
2019-06-26T06:39:42.885Z,31.40
2019-06-26T06:40:42.931Z,31.47
2019-06-26T06:41:43.562Z,31.60
2019-06-26T06:42:42.864Z,31.60
2019-06-26T06:43:42.847Z,31.75
2019-06-26T06:44:42.831Z,31.84
2019-06-26T06:45:42.824Z,31.84
2019-06-26T06:46:42.821Z,31.68
2019-06-26T06:47:42.800Z,31.59
2019-06-26T06:48:42.791Z,31.56
2019-06-26T06:49:42.780Z,31.53
2019-06-26T06:50:42.768Z,31.69
2019-06-26T06:51:42.774Z,31.92
2019-06-26T06:52:42.809Z,32.10
2019-06-26T06:53:42.741Z,32.24
2019-06-26T06:54:42.731Z,32.21
2019-06-26T06:55:42.719Z,32.39
2019-06-26T06:56:42.716Z,32.62
2019-06-26T06:57:42.698Z,32.71
2019-06-26T06:58:42.685Z,33.00
2019-06-26T06:59:42.673Z,33.12
2019-06-26T07:00:42.663Z,33.31
2019-06-26T07:01:42.663Z,33.11
2019-06-26T07:02:42.645Z,33.31
2019-06-26T07:03:42.632Z,33.45
2019-06-26T07:04:42.625Z,33.47
2019-06-26T07:05:42.625Z,33.62
2019-06-26T07:06:42.613Z,33.81
2019-06-26T07:07:42.591Z,34.01
2019-06-26T07:08:42.585Z,33.77
2019-06-26T07:09:42.572Z,33.84
2019-06-26T07:10:42.575Z,33.94
2019-06-26T07:11:42.557Z,33.99
2019-06-26T07:12:42.538Z,33.90
2019-06-26T07:13:42.528Z,33.97
2019-06-26T07:14:42.519Z,33.92
2019-06-26T07:15:42.506Z,33.82
2019-06-26T07:16:42.504Z,33.72
2019-06-26T07:17:42.487Z,33.74
2019-06-26T07:18:42.471Z,33.81
2019-06-26T07:19:42.460Z,33.92
2019-06-26T07:20:44.746Z,33.92
2019-06-26T07:21:42.451Z,34.06
2019-06-26T07:22:42.433Z,34.31
2019-06-26T07:23:42.423Z,34.48
2019-06-26T07:24:42.408Z,34.52
2019-06-26T07:25:42.407Z,34.69
2019-06-26T07:26:42.425Z,34.73
2019-06-26T07:27:42.422Z,34.43
2019-06-26T07:28:42.365Z,34.38
2019-06-26T07:29:42.360Z,34.40
2019-06-26T07:30:42.345Z,34.26
2019-06-26T07:31:42.344Z,34.46
2019-06-26T07:32:42.327Z,34.80
2019-06-26T07:33:42.317Z,34.87
2019-06-26T07:34:42.304Z,34.75
2019-06-26T07:35:42.292Z,34.86
2019-06-26T07:36:42.293Z,34.72
2019-06-26T07:37:42.272Z,34.98
2019-06-26T07:38:42.262Z,35.09
2019-06-26T07:39:42.252Z,35.36
2019-06-26T07:40:42.251Z,35.64
2019-06-26T07:41:42.245Z,35.62
2019-06-26T07:42:42.225Z,35.73
2019-06-26T07:43:42.211Z,35.76
2019-06-26T07:44:42.197Z,35.96
2019-06-26T07:45:42.187Z,36.16
2019-06-26T07:46:42.232Z,36.27
2019-06-26T07:47:44.000Z,36.49
2019-06-26T07:48:42.157Z,36.00
2019-06-26T07:49:42.147Z,35.76
2019-06-26T07:50:42.134Z,35.22
2019-06-26T07:51:42.123Z,34.61
2019-06-26T07:52:42.184Z,34.69
2019-06-26T07:53:42.107Z,34.28
2019-06-26T07:54:42.091Z,33.63
2019-06-26T07:55:42.090Z,33.78
2019-06-26T07:56:42.071Z,34.19
2019-06-26T07:57:42.109Z,34.42
2019-06-26T07:58:42.050Z,35.05
2019-06-26T07:59:42.060Z,35.37
2019-06-26T08:00:42.030Z,35.76
2019-06-26T08:01:42.017Z,35.25
2019-06-26T08:02:42.018Z,34.98
2019-06-26T08:03:42.005Z,35.47
2019-06-26T08:04:41.987Z,35.76
2019-06-26T08:05:43.239Z,35.31
2019-06-26T08:06:41.965Z,34.72
2019-06-26T08:07:41.972Z,34.98
2019-06-26T08:08:41.945Z,35.40
2019-06-26T08:09:41.934Z,35.68
2019-06-26T08:10:41.939Z,35.89
2019-06-26T08:11:41.915Z,36.28
2019-06-26T08:12:41.915Z,36.44
2019-06-26T08:13:41.895Z,35.58
2019-06-26T08:14:41.895Z,35.91
2019-06-26T08:15:41.874Z,36.23
2019-06-26T08:16:41.863Z,36.55
2019-06-26T08:17:58.778Z,36.65
2019-06-26T08:18:42.856Z,36.65
2019-06-26T08:19:41.830Z,36.55
2019-06-26T08:20:55.445Z,36.49
2019-06-26T08:21:46.519Z,36.60
2019-06-26T08:22:41.810Z,36.78
2019-06-26T08:23:41.788Z,37.08
2019-06-26T08:24:41.781Z,37.24
2019-06-26T08:25:41.782Z,37.21
2019-06-26T08:26:41.763Z,37.38
2019-06-26T08:27:41.776Z,37.47
2019-06-26T08:28:41.739Z,37.58
2019-06-26T08:29:41.730Z,37.66
2019-06-26T08:30:41.724Z,37.69
2019-06-26T08:31:41.718Z,37.33
2019-06-26T08:32:41.710Z,37.02
2019-06-26T08:33:41.690Z,36.97
2019-06-26T08:34:41.763Z,37.06
2019-06-26T08:35:41.670Z,36.90
2019-06-26T08:36:41.665Z,36.96
2019-06-26T08:37:41.658Z,36.79
2019-06-26T08:38:41.639Z,36.59
2019-06-26T08:39:41.688Z,36.57
2019-06-26T08:40:41.622Z,36.35
2019-06-26T08:41:41.642Z,36.28
2019-06-26T08:42:41.607Z,36.41
2019-06-26T08:43:41.587Z,36.64
2019-06-26T08:44:41.576Z,36.77
2019-06-26T08:45:41.567Z,37.23
2019-06-26T08:46:41.554Z,37.33
2019-06-26T08:47:41.553Z,37.63
2019-06-26T08:48:41.537Z,37.78
2019-06-26T08:49:41.523Z,37.50
2019-06-26T08:50:41.511Z,37.45
2019-06-26T08:51:41.500Z,37.16
2019-06-26T08:52:41.501Z,36.89
2019-06-26T08:53:41.483Z,36.52
2019-06-26T08:54:41.488Z,36.68
2019-06-26T08:55:41.459Z,36.87
2019-06-26T08:56:41.449Z,37.15
2019-06-26T08:57:41.450Z,37.56
2019-06-26T08:58:41.433Z,37.46
2019-06-26T08:59:41.420Z,37.60
2019-06-26T09:00:41.438Z,37.68
2019-06-26T09:01:41.400Z,37.80
2019-06-26T09:02:41.406Z,38.04
2019-06-26T09:03:42.195Z,38.28
2019-06-26T09:04:41.370Z,38.25
2019-06-26T09:05:47.837Z,38.07
2019-06-26T09:06:42.346Z,38.26
2019-06-26T09:07:41.367Z,38.25
2019-06-26T09:08:41.327Z,38.04
2019-06-26T09:09:41.320Z,37.73
2019-06-26T09:10:44.709Z,37.63
2019-06-26T09:11:41.297Z,37.65
2019-06-26T09:12:41.288Z,37.85
2019-06-26T09:13:41.287Z,38.02
2019-06-26T09:14:41.267Z,38.09
2019-06-26T09:15:41.257Z,38.25
2019-06-26T09:16:41.252Z,38.37
2019-06-26T09:17:41.240Z,38.06
2019-06-26T09:18:41.242Z,38.03
2019-06-26T09:19:41.217Z,38.37
2019-06-26T09:20:41.209Z,38.79
2019-06-26T09:21:41.198Z,38.86
2019-06-26T09:22:41.191Z,38.92
2019-06-26T09:23:41.190Z,38.78
2019-06-26T09:24:41.172Z,38.56
2019-06-26T09:25:41.161Z,38.18
2019-06-26T09:26:41.152Z,38.38
2019-06-26T09:27:41.139Z,38.53
2019-06-26T09:28:41.140Z,38.75
2019-06-26T09:29:41.118Z,38.90
2019-06-26T09:30:41.114Z,39.10
2019-06-26T09:31:41.100Z,39.34
2019-06-26T09:32:41.090Z,39.44
2019-06-26T09:33:41.092Z,39.44
2019-06-26T09:34:41.071Z,39.44
2019-06-26T09:35:41.063Z,38.74
2019-06-26T09:36:41.071Z,38.63
2019-06-26T09:37:41.043Z,38.89
2019-06-26T09:38:41.040Z,39.16
2019-06-26T09:39:41.025Z,38.78
2019-06-26T09:40:41.015Z,38.33
2019-06-26T09:41:41.005Z,38.07
2019-06-26T09:42:41.158Z,38.02
2019-06-26T09:43:40.995Z,38.03
2019-06-26T09:44:40.977Z,37.63
2019-06-26T09:45:40.966Z,37.66
2019-06-26T09:46:40.956Z,37.90
2019-06-26T09:47:40.951Z,38.28
2019-06-26T09:48:52.172Z,38.77
2019-06-26T09:49:41.942Z,39.00
2019-06-26T09:50:40.916Z,39.25
2019-06-26T09:51:40.907Z,39.25
2019-06-26T09:52:40.906Z,39.05
2019-06-26T09:53:46.999Z,39.02
2019-06-26T09:54:41.880Z,38.87
2019-06-26T09:55:40.871Z,39.06
2019-06-26T09:56:40.863Z,38.78
2019-06-26T09:57:40.853Z,38.71
2019-06-26T09:58:40.858Z,38.56
2019-06-26T09:59:40.833Z,38.82
2019-06-26T10:00:40.825Z,39.05
2019-06-26T10:01:40.821Z,39.09
2019-06-26T10:02:40.807Z,39.31
2019-06-26T10:03:40.809Z,39.38
2019-06-26T10:04:40.788Z,39.46
2019-06-26T10:05:40.779Z,39.46
2019-06-26T10:06:40.774Z,39.25
2019-06-26T10:07:40.759Z,39.16
2019-06-26T10:08:40.770Z,39.05
2019-06-26T10:09:40.749Z,39.22
2019-06-26T10:10:40.730Z,39.28
2019-06-26T10:11:40.721Z,39.32
2019-06-26T10:12:47.747Z,39.13
2019-06-26T10:13:40.702Z,39.01
2019-06-26T10:14:47.366Z,38.75
2019-06-26T10:15:41.683Z,39.17
2019-06-26T10:16:40.674Z,39.09
2019-06-26T10:17:40.672Z,39.31
2019-06-26T10:18:40.665Z,39.61
2019-06-26T10:19:40.668Z,39.66
2019-06-26T10:20:40.642Z,39.69
2019-06-26T10:21:40.634Z,39.41
2019-06-26T10:22:40.706Z,39.28
2019-06-26T10:23:40.611Z,39.38
2019-06-26T10:24:40.616Z,39.27
2019-06-26T10:25:40.593Z,39.09
2019-06-26T10:26:40.587Z,39.20
2019-06-26T10:27:40.582Z,39.27
2019-06-26T10:28:40.604Z,38.68
2019-06-26T10:29:40.568Z,38.41
2019-06-26T10:30:40.582Z,38.70
2019-06-26T10:31:40.547Z,39.09
2019-06-26T10:32:40.539Z,39.13
2019-06-26T10:33:40.523Z,39.43
2019-06-26T10:34:40.522Z,39.27
2019-06-26T10:35:40.514Z,39.28
2019-06-26T10:36:40.534Z,39.39
2019-06-26T10:37:40.486Z,39.19
2019-06-26T10:38:40.484Z,39.14
2019-06-26T10:39:40.491Z,39.06
2019-06-26T10:40:40.465Z,38.86
2019-06-26T10:41:40.460Z,38.71
2019-06-26T10:42:40.440Z,38.55
2019-06-26T10:43:40.441Z,38.62
2019-06-26T10:44:40.433Z,38.79
2019-06-26T10:45:40.416Z,38.37
2019-06-26T10:46:40.405Z,38.14
2019-06-26T10:47:40.400Z,38.40
2019-06-26T10:48:40.396Z,38.47
2019-06-26T10:49:40.401Z,38.47
2019-06-26T10:50:49.437Z,38.82
2019-06-26T10:51:41.361Z,38.81
2019-06-26T10:52:40.366Z,38.74
2019-06-26T10:53:40.358Z,38.84
2019-06-26T10:54:44.167Z,38.79
2019-06-26T10:55:40.327Z,38.59
2019-06-26T10:56:40.321Z,38.77
2019-06-26T10:57:40.319Z,38.82
2019-06-26T10:58:40.309Z,38.52
2019-06-26T10:59:40.300Z,38.82
2019-06-26T11:00:40.294Z,38.47
2019-06-26T11:01:40.278Z,38.04
2019-06-26T11:02:40.271Z,38.14
2019-06-26T11:03:40.257Z,38.16
2019-06-26T11:04:40.261Z,38.18
2019-06-26T11:05:40.248Z,38.19
2019-06-26T11:06:40.252Z,38.22
2019-06-26T11:07:40.224Z,38.41
2019-06-26T11:08:40.222Z,38.50
2019-06-26T11:09:40.231Z,38.22
2019-06-26T11:10:40.201Z,38.30
2019-06-26T11:11:40.191Z,38.22
2019-06-26T11:12:40.200Z,38.26
2019-06-26T11:13:40.178Z,38.26
2019-06-26T11:14:40.185Z,37.90
2019-06-26T11:15:40.156Z,38.02
2019-06-26T11:16:40.154Z,38.37
2019-06-26T11:17:40.139Z,38.67
2019-06-26T11:18:40.134Z,38.78
2019-06-26T11:19:44.265Z,38.59
2019-06-26T11:20:40.113Z,38.47
2019-06-26T11:21:40.110Z,38.59
2019-06-26T11:22:40.099Z,38.81
2019-06-26T11:23:40.091Z,38.89
2019-06-26T11:24:40.160Z,38.79
2019-06-26T11:25:40.078Z,39.05
2019-06-26T11:26:40.083Z,39.20
2019-06-26T11:27:40.055Z,39.05
2019-06-26T11:28:40.047Z,38.92
2019-06-26T11:29:40.126Z,38.86
2019-06-26T11:30:40.039Z,39.02
2019-06-26T11:31:40.029Z,39.09
2019-06-26T11:32:40.022Z,38.77
2019-06-26T11:33:40.006Z,38.25
2019-06-26T11:34:40.002Z,38.34
2019-06-26T11:35:40.003Z,38.43
2019-06-26T11:36:39.979Z,38.24
2019-06-26T11:37:39.975Z,38.16
2019-06-26T11:38:39.968Z,38.04
2019-06-26T11:39:39.958Z,38.10
2019-06-26T11:40:39.958Z,38.15
2019-06-26T11:41:39.936Z,38.31
2019-06-26T11:42:39.932Z,38.36
2019-06-26T11:43:39.922Z,38.56
2019-06-26T11:44:39.937Z,38.41
2019-06-26T11:45:39.914Z,38.77
2019-06-26T11:46:39.894Z,38.63
2019-06-26T11:47:39.904Z,38.60
2019-06-26T11:48:39.893Z,38.12
2019-06-26T11:49:39.887Z,38.18
2019-06-26T11:50:39.900Z,38.21
2019-06-26T11:51:39.895Z,38.38
2019-06-26T11:52:39.845Z,38.38
2019-06-26T11:53:39.835Z,38.52
2019-06-26T11:54:39.832Z,38.63
2019-06-26T11:55:39.834Z,38.58
2019-06-26T11:56:39.812Z,38.44
2019-06-26T11:57:39.800Z,38.62
2019-06-26T11:58:39.795Z,38.38
2019-06-26T11:59:39.789Z,38.67
2019-06-26T12:00:41.728Z,38.77
2019-06-26T12:01:39.768Z,38.53
2019-06-26T12:02:39.763Z,38.59
2019-06-26T12:03:39.757Z,38.87
2019-06-26T12:04:39.745Z,38.89
2019-06-26T12:05:39.753Z,38.58
2019-06-26T12:06:39.737Z,37.84
2019-06-26T12:07:39.720Z,37.45
2019-06-26T12:08:39.715Z,37.77
2019-06-26T12:09:39.733Z,38.24
2019-06-26T12:10:39.701Z,38.36
2019-06-26T12:11:39.688Z,38.33
2019-06-26T12:12:39.689Z,38.26
2019-06-26T12:13:39.692Z,38.02
2019-06-26T12:14:39.689Z,37.77
2019-06-26T12:15:39.661Z,37.47
2019-06-26T12:16:39.638Z,37.27
2019-06-26T12:17:39.652Z,37.72
2019-06-26T12:18:39.624Z,37.87
2019-06-26T12:19:39.749Z,37.97
2019-06-26T12:20:39.621Z,38.03
2019-06-26T12:21:39.614Z,38.34
2019-06-26T12:22:39.598Z,38.34
2019-06-26T12:23:39.581Z,37.68
2019-06-26T12:24:39.591Z,37.73
2019-06-26T12:25:39.584Z,37.43
2019-06-26T12:26:39.588Z,37.72
2019-06-26T12:27:39.553Z,37.75
2019-06-26T12:28:39.537Z,37.58
2019-06-26T12:29:39.521Z,37.43
2019-06-26T12:30:39.564Z,37.42
2019-06-26T12:31:39.507Z,37.39
2019-06-26T12:32:42.135Z,37.04
2019-06-26T12:33:40.482Z,37.15
2019-06-26T12:34:39.478Z,37.43
2019-06-26T12:35:39.503Z,37.66
2019-06-26T12:36:39.716Z,38.06
2019-06-26T12:37:39.440Z,37.99
2019-06-26T12:38:39.431Z,38.21
2019-06-26T12:39:39.429Z,38.31
2019-06-26T12:40:39.409Z,38.18
2019-06-26T12:41:39.423Z,38.07
2019-06-26T12:42:39.389Z,37.85
2019-06-26T12:43:39.380Z,37.28
2019-06-26T12:44:39.369Z,36.93
2019-06-26T12:45:39.357Z,36.87
2019-06-26T12:46:39.358Z,37.04
2019-06-26T12:47:39.347Z,37.18
2019-06-26T12:48:39.344Z,37.13
2019-06-26T12:49:39.320Z,37.15
2019-06-26T12:50:39.314Z,36.83
2019-06-26T12:51:39.454Z,36.96
2019-06-26T12:52:39.291Z,36.84
2019-06-26T12:53:39.292Z,36.72